sensor_id;sensor_type;location;lat;lon;timestamp;temperature;humidity
69335;SHT31;56477;52.742;15.242;2022-11-20T00:01:41;-1.12;99.99
69335;SHT31;56477;52.742;15.242;2022-11-20T00:04:09;-1.11;99.99
69335;SHT31;56477;52.742;15.242;2022-11-20T00:06:35;-1.10;99.99
69335;SHT31;56477;52.742;15.242;2022-11-20T00:09:02;-1.11;99.99
69335;SHT31;56477;52.742;15.242;2022-11-20T00:11:29;-1.08;99.99
69335;SHT31;56477;52.742;15.242;2022-11-20T00:13:58;-1.07;99.99
69335;SHT31;56477;52.742;15.242;2022-11-20T00:16:26;-1.03;99.99
69335;SHT31;56477;52.742;15.242;2022-11-20T00:18:53;-1.03;99.99
69335;SHT31;56477;52.742;15.242;2022-11-20T00:21:21;-1.00;99.99
69335;SHT31;56477;52.742;15.242;2022-11-20T00:23:49;-1.00;99.99
69335;SHT31;56477;52.742;15.242;2022-11-20T00:26:16;-1.01;99.99
69335;SHT31;56477;52.742;15.242;2022-11-20T00:28:44;-0.99;99.99
69335;SHT31;56477;52.742;15.242;2022-11-20T00:31:15;-0.97;99.99
69335;SHT31;56477;52.742;15.242;2022-11-20T00:33:42;-0.96;99.99
69335;SHT31;56477;52.742;15.242;2022-11-20T00:36:12;-0.94;99.99
69335;SHT31;56477;52.742;15.242;2022-11-20T00:38:39;-0.91;99.99
69335;SHT31;56477;52.742;15.242;2022-11-20T00:41:08;-0.90;99.99
69335;SHT31;56477;52.742;15.242;2022-11-20T00:43:35;-0.87;99.99
69335;SHT31;56477;52.742;15.242;2022-11-20T00:46:03;-0.84;99.99
69335;SHT31;56477;52.742;15.242;2022-11-20T00:48:30;-0.82;99.99
69335;SHT31;56477;52.742;15.242;2022-11-20T00:50:57;-0.87;99.99
69335;SHT31;56477;52.742;15.242;2022-11-20T00:53:23;-0.84;99.99
69335;SHT31;56477;52.742;15.242;2022-11-20T00:55:57;-0.83;99.99
69335;SHT31;56477;52.742;15.242;2022-11-20T00:58:30;-0.84;99.99
69335;SHT31;56477;52.742;15.242;2022-11-20T01:01:04;-0.86;99.99
69335;SHT31;56477;52.742;15.242;2022-11-20T01:03:32;-0.83;99.99
69335;SHT31;56477;52.742;15.242;2022-11-20T01:06:03;-0.84;99.99
69335;SHT31;56477;52.742;15.242;2022-11-20T01:08:34;-0.84;99.99
69335;SHT31;56477;52.742;15.242;2022-11-20T01:11:05;-0.83;99.99
69335;SHT31;56477;52.742;15.242;2022-11-20T01:13:31;-0.82;99.99
69335;SHT31;56477;52.742;15.242;2022-11-20T01:18:38;-0.83;99.99
69335;SHT31;56477;52.742;15.242;2022-11-20T01:21:12;-0.82;99.99
69335;SHT31;56477;52.742;15.242;2022-11-20T01:23:40;-0.80;99.99
69335;SHT31;56477;52.742;15.242;2022-11-20T01:26:09;-0.82;99.99
69335;SHT31;56477;52.742;15.242;2022-11-20T01:28:36;-0.80;99.99
69335;SHT31;56477;52.742;15.242;2022-11-20T01:31:11;-0.82;99.99
69335;SHT31;56477;52.742;15.242;2022-11-20T01:33:39;-0.80;99.99
69335;SHT31;56477;52.742;15.242;2022-11-20T01:36:07;-0.80;99.99
69335;SHT31;56477;52.742;15.242;2022-11-20T01:38:34;-0.80;99.99
69335;SHT31;56477;52.742;15.242;2022-11-20T01:41:00;-0.77;99.99
69335;SHT31;56477;52.742;15.242;2022-11-20T01:43:26;-0.79;99.99
69335;SHT31;56477;52.742;15.242;2022-11-20T01:46:13;-0.77;99.99
69335;SHT31;56477;52.742;15.242;2022-11-20T01:49:02;-0.77;99.99
69335;SHT31;56477;52.742;15.242;2022-11-20T01:51:33;-0.79;99.99
69335;SHT31;56477;52.742;15.242;2022-11-20T01:54:04;-0.77;99.99
69335;SHT31;56477;52.742;15.242;2022-11-20T01:56:33;-0.74;99.99
69335;SHT31;56477;52.742;15.242;2022-11-20T01:59:02;-0.74;99.99
69335;SHT31;56477;52.742;15.242;2022-11-20T02:01:28;-0.79;99.99
69335;SHT31;56477;52.742;15.242;2022-11-20T02:03:56;-0.79;99.99
69335;SHT31;56477;52.742;15.242;2022-11-20T02:08:48;-0.74;99.99
69335;SHT31;56477;52.742;15.242;2022-11-20T02:11:14;-0.82;99.99
69335;SHT31;56477;52.742;15.242;2022-11-20T02:13:40;-0.79;99.99
69335;SHT31;56477;52.742;15.242;2022-11-20T02:16:20;-0.82;99.99
69335;SHT31;56477;52.742;15.242;2022-11-20T02:18:47;-0.82;99.99
69335;SHT31;56477;52.742;15.242;2022-11-20T02:23:53;-0.83;99.99
69335;SHT31;56477;52.742;15.242;2022-11-20T02:26:20;-0.80;99.99
69335;SHT31;56477;52.742;15.242;2022-11-20T02:28:48;-0.83;99.99
69335;SHT31;56477;52.742;15.242;2022-11-20T02:31:14;-0.83;99.99
69335;SHT31;56477;52.742;15.242;2022-11-20T02:33:40;-0.82;99.99
69335;SHT31;56477;52.742;15.242;2022-11-20T02:36:09;-0.83;99.99
69335;SHT31;56477;52.742;15.242;2022-11-20T02:38:37;-0.84;99.99
69335;SHT31;56477;52.742;15.242;2022-11-20T02:41:03;-0.82;99.99
69335;SHT31;56477;52.742;15.242;2022-11-20T02:43:30;-0.84;99.99
69335;SHT31;56477;52.742;15.242;2022-11-20T02:45:56;-0.84;99.99
69335;SHT31;56477;52.742;15.242;2022-11-20T02:48:22;-0.84;99.99
69335;SHT31;56477;52.742;15.242;2022-11-20T02:50:48;-0.83;99.99
69335;SHT31;56477;52.742;15.242;2022-11-20T02:53:14;-0.87;99.99
69335;SHT31;56477;52.742;15.242;2022-11-20T02:55:40;-0.87;99.99
69335;SHT31;56477;52.742;15.242;2022-11-20T02:58:06;-0.89;99.99
69335;SHT31;56477;52.742;15.242;2022-11-20T03:00:32;-0.90;99.99
69335;SHT31;56477;52.742;15.242;2022-11-20T03:02:59;-0.91;99.99
69335;SHT31;56477;52.742;15.242;2022-11-20T03:05:25;-0.90;99.99
69335;SHT31;56477;52.742;15.242;2022-11-20T03:07:51;-0.91;99.99
69335;SHT31;56477;52.742;15.242;2022-11-20T03:10:17;-0.96;99.99
69335;SHT31;56477;52.742;15.242;2022-11-20T03:12:43;-0.99;99.99
69335;SHT31;56477;52.742;15.242;2022-11-20T03:15:09;-0.99;99.99
69335;SHT31;56477;52.742;15.242;2022-11-20T03:17:36;-0.93;99.99
69335;SHT31;56477;52.742;15.242;2022-11-20T03:20:03;-0.93;99.99
69335;SHT31;56477;52.742;15.242;2022-11-20T03:22:30;-0.94;99.99
69335;SHT31;56477;52.742;15.242;2022-11-20T03:24:55;-0.96;99.99
69335;SHT31;56477;52.742;15.242;2022-11-20T03:27:22;-0.96;99.99
69335;SHT31;56477;52.742;15.242;2022-11-20T03:29:48;-0.97;99.99
69335;SHT31;56477;52.742;15.242;2022-11-20T03:32:14;-0.97;99.99
69335;SHT31;56477;52.742;15.242;2022-11-20T03:34:40;-0.94;99.99
69335;SHT31;56477;52.742;15.242;2022-11-20T03:37:06;-0.93;99.99
69335;SHT31;56477;52.742;15.242;2022-11-20T03:39:32;-0.91;99.99
69335;SHT31;56477;52.742;15.242;2022-11-20T03:41:59;-0.91;99.99
69335;SHT31;56477;52.742;15.242;2022-11-20T03:44:25;-0.94;99.99
69335;SHT31;56477;52.742;15.242;2022-11-20T03:46:51;-0.96;99.99
69335;SHT31;56477;52.742;15.242;2022-11-20T03:49:17;-0.94;99.99
69335;SHT31;56477;52.742;15.242;2022-11-20T03:51:44;-0.93;99.99
69335;SHT31;56477;52.742;15.242;2022-11-20T03:54:09;-0.91;99.99
69335;SHT31;56477;52.742;15.242;2022-11-20T03:56:37;-0.97;99.99
69335;SHT31;56477;52.742;15.242;2022-11-20T03:59:03;-0.96;99.99
69335;SHT31;56477;52.742;15.242;2022-11-20T04:01:32;-0.93;99.99
69335;SHT31;56477;52.742;15.242;2022-11-20T04:03:58;-0.94;99.99
69335;SHT31;56477;52.742;15.242;2022-11-20T04:06:28;-0.89;99.99
69335;SHT31;56477;52.742;15.242;2022-11-20T04:08:55;-0.90;99.99
69335;SHT31;56477;52.742;15.242;2022-11-20T04:11:25;-0.94;99.99
69335;SHT31;56477;52.742;15.242;2022-11-20T04:13:54;-0.89;99.99
69335;SHT31;56477;52.742;15.242;2022-11-20T04:16:22;-0.93;99.99
69335;SHT31;56477;52.742;15.242;2022-11-20T04:18:55;-0.89;99.99
69335;SHT31;56477;52.742;15.242;2022-11-20T04:21:22;-0.91;99.99
69335;SHT31;56477;52.742;15.242;2022-11-20T04:23:49;-0.90;99.99
69335;SHT31;56477;52.742;15.242;2022-11-20T04:26:16;-0.94;99.99
69335;SHT31;56477;52.742;15.242;2022-11-20T04:28:45;-0.96;99.99
69335;SHT31;56477;52.742;15.242;2022-11-20T04:31:13;-0.97;99.99
69335;SHT31;56477;52.742;15.242;2022-11-20T04:33:40;-1.00;99.99
69335;SHT31;56477;52.742;15.242;2022-11-20T04:36:12;-0.96;99.99
69335;SHT31;56477;52.742;15.242;2022-11-20T04:38:39;-0.96;99.99
69335;SHT31;56477;52.742;15.242;2022-11-20T04:41:07;-0.96;99.99
69335;SHT31;56477;52.742;15.242;2022-11-20T04:43:36;-0.97;99.99
69335;SHT31;56477;52.742;15.242;2022-11-20T04:46:03;-1.00;99.99
69335;SHT31;56477;52.742;15.242;2022-11-20T04:48:29;-0.99;99.99
69335;SHT31;56477;52.742;15.242;2022-11-20T04:50:56;-0.97;99.99
69335;SHT31;56477;52.742;15.242;2022-11-20T04:53:22;-1.00;99.99
69335;SHT31;56477;52.742;15.242;2022-11-20T04:55:49;-1.04;99.99
69335;SHT31;56477;52.742;15.242;2022-11-20T04:58:15;-0.99;99.99
69335;SHT31;56477;52.742;15.242;2022-11-20T05:00:42;-1.00;99.99
69335;SHT31;56477;52.742;15.242;2022-11-20T05:03:08;-1.00;99.99
69335;SHT31;56477;52.742;15.242;2022-11-20T05:05:34;-1.00;99.99
69335;SHT31;56477;52.742;15.242;2022-11-20T05:08:00;-1.04;99.99
69335;SHT31;56477;52.742;15.242;2022-11-20T05:10:27;-1.05;99.99
69335;SHT31;56477;52.742;15.242;2022-11-20T05:12:53;-1.05;99.99
69335;SHT31;56477;52.742;15.242;2022-11-20T05:15:19;-1.03;99.99
69335;SHT31;56477;52.742;15.242;2022-11-20T05:17:50;-1.05;99.99
69335;SHT31;56477;52.742;15.242;2022-11-20T05:20:17;-1.03;99.99
69335;SHT31;56477;52.742;15.242;2022-11-20T05:22:44;-1.04;99.99
69335;SHT31;56477;52.742;15.242;2022-11-20T05:25:10;-1.04;99.99
69335;SHT31;56477;52.742;15.242;2022-11-20T05:27:37;-1.03;99.99
69335;SHT31;56477;52.742;15.242;2022-11-20T05:30:04;-1.03;99.99
69335;SHT31;56477;52.742;15.242;2022-11-20T05:32:30;-1.01;99.99
69335;SHT31;56477;52.742;15.242;2022-11-20T05:34:57;-1.04;99.99
69335;SHT31;56477;52.742;15.242;2022-11-20T05:37:22;-1.07;99.99
69335;SHT31;56477;52.742;15.242;2022-11-20T05:39:49;-1.11;99.99
69335;SHT31;56477;52.742;15.242;2022-11-20T05:42:15;-1.07;99.99
69335;SHT31;56477;52.742;15.242;2022-11-20T05:45:01;-1.11;99.99
69335;SHT31;56477;52.742;15.242;2022-11-20T05:47:30;-1.11;99.99
69335;SHT31;56477;52.742;15.242;2022-11-20T05:49:57;-1.12;99.99
69335;SHT31;56477;52.742;15.242;2022-11-20T05:52:23;-1.14;99.99
69335;SHT31;56477;52.742;15.242;2022-11-20T05:54:49;-1.15;99.99
69335;SHT31;56477;52.742;15.242;2022-11-20T05:57:16;-1.11;99.99
69335;SHT31;56477;52.742;15.242;2022-11-20T05:59:42;-1.10;99.99
69335;SHT31;56477;52.742;15.242;2022-11-20T06:02:08;-1.08;99.99
69335;SHT31;56477;52.742;15.242;2022-11-20T06:04:36;-1.12;99.99
69335;SHT31;56477;52.742;15.242;2022-11-20T06:07:02;-1.11;99.99
69335;SHT31;56477;52.742;15.242;2022-11-20T06:09:28;-1.12;99.99
69335;SHT31;56477;52.742;15.242;2022-11-20T06:11:54;-1.15;99.99
69335;SHT31;56477;52.742;15.242;2022-11-20T06:14:21;-1.12;99.99
69335;SHT31;56477;52.742;15.242;2022-11-20T06:16:47;-1.20;99.99
69335;SHT31;56477;52.742;15.242;2022-11-20T06:19:13;-1.17;99.99
69335;SHT31;56477;52.742;15.242;2022-11-20T06:21:39;-1.18;99.99
69335;SHT31;56477;52.742;15.242;2022-11-20T06:24:05;-1.17;99.99
69335;SHT31;56477;52.742;15.242;2022-11-20T06:26:31;-1.18;99.91
69335;SHT31;56477;52.742;15.242;2022-11-20T06:28:58;-1.20;99.76
69335;SHT31;56477;52.742;15.242;2022-11-20T06:31:25;-1.17;99.78
69335;SHT31;56477;52.742;15.242;2022-11-20T06:33:52;-1.14;99.70
69335;SHT31;56477;52.742;15.242;2022-11-20T06:36:20;-1.17;99.50
69335;SHT31;56477;52.742;15.242;2022-11-20T06:38:47;-1.15;99.49
69335;SHT31;56477;52.742;15.242;2022-11-20T06:41:15;-1.15;99.36
69335;SHT31;56477;52.742;15.242;2022-11-20T06:43:42;-1.18;99.35
69335;SHT31;56477;52.742;15.242;2022-11-20T06:46:10;-1.21;99.07
69335;SHT31;56477;52.742;15.242;2022-11-20T06:48:37;-1.14;99.25
69335;SHT31;56477;52.742;15.242;2022-11-20T06:51:04;-1.15;99.12
69335;SHT31;56477;52.742;15.242;2022-11-20T06:53:31;-1.12;99.07
69335;SHT31;56477;52.742;15.242;2022-11-20T06:55:57;-1.15;98.94
69335;SHT31;56477;52.742;15.242;2022-11-20T06:58:26;-1.12;98.70
69335;SHT31;56477;52.742;15.242;2022-11-20T07:00:53;-1.11;98.56
69335;SHT31;56477;52.742;15.242;2022-11-20T07:03:19;-1.07;98.66
69335;SHT31;56477;52.742;15.242;2022-11-20T07:05:45;-1.04;98.05
69335;SHT31;56477;52.742;15.242;2022-11-20T07:08:12;-1.01;98.07
69335;SHT31;56477;52.742;15.242;2022-11-20T07:10:38;-1.11;97.76
69335;SHT31;56477;52.742;15.242;2022-11-20T07:13:04;-1.07;97.87
69335;SHT31;56477;52.742;15.242;2022-11-20T07:15:30;-1.08;97.90
69335;SHT31;56477;52.742;15.242;2022-11-20T07:18:00;-1.07;97.83
69335;SHT31;56477;52.742;15.242;2022-11-20T07:20:32;-1.07;97.68
69335;SHT31;56477;52.742;15.242;2022-11-20T07:22:58;-1.04;97.40
69335;SHT31;56477;52.742;15.242;2022-11-20T07:25:25;-1.04;97.19
69335;SHT31;56477;52.742;15.242;2022-11-20T07:27:52;-1.04;97.10
69335;SHT31;56477;52.742;15.242;2022-11-20T07:30:18;-1.04;97.12
69335;SHT31;56477;52.742;15.242;2022-11-20T07:32:50;-1.07;97.18
69335;SHT31;56477;52.742;15.242;2022-11-20T07:35:16;-1.08;96.94
69335;SHT31;56477;52.742;15.242;2022-11-20T07:37:43;-1.07;96.73
69335;SHT31;56477;52.742;15.242;2022-11-20T07:40:12;-1.05;96.77
69335;SHT31;56477;52.742;15.242;2022-11-20T07:42:39;-1.04;96.65
69335;SHT31;56477;52.742;15.242;2022-11-20T07:45:12;-1.01;96.44
69335;SHT31;56477;52.742;15.242;2022-11-20T07:47:38;-1.03;96.30
69335;SHT31;56477;52.742;15.242;2022-11-20T07:50:04;-0.99;96.60
69335;SHT31;56477;52.742;15.242;2022-11-20T07:52:31;-0.94;96.38
69335;SHT31;56477;52.742;15.242;2022-11-20T07:54:57;-0.94;96.14
69335;SHT31;56477;52.742;15.242;2022-11-20T07:57:23;-0.94;95.97
69335;SHT31;56477;52.742;15.242;2022-11-20T07:59:49;-0.96;95.94
69335;SHT31;56477;52.742;15.242;2022-11-20T08:02:16;-0.91;96.08
69335;SHT31;56477;52.742;15.242;2022-11-20T08:04:42;-0.91;95.90
69335;SHT31;56477;52.742;15.242;2022-11-20T08:07:08;-0.91;95.97
69335;SHT31;56477;52.742;15.242;2022-11-20T08:09:34;-0.90;96.24
69335;SHT31;56477;52.742;15.242;2022-11-20T08:12:00;-0.89;96.05
69335;SHT31;56477;52.742;15.242;2022-11-20T08:14:45;-0.91;96.01
69335;SHT31;56477;52.742;15.242;2022-11-20T08:17:11;-0.86;95.95
69335;SHT31;56477;52.742;15.242;2022-11-20T08:19:39;-0.86;95.99
69335;SHT31;56477;52.742;15.242;2022-11-20T08:22:05;-0.73;95.51
69335;SHT31;56477;52.742;15.242;2022-11-20T08:24:31;-0.69;95.43
69335;SHT31;56477;52.742;15.242;2022-11-20T08:26:58;-0.76;95.57
69335;SHT31;56477;52.742;15.242;2022-11-20T08:29:26;-0.70;95.40
69335;SHT31;56477;52.742;15.242;2022-11-20T08:31:53;-0.74;95.55
69335;SHT31;56477;52.742;15.242;2022-11-20T08:34:36;-0.83;95.61
69335;SHT31;56477;52.742;15.242;2022-11-20T08:37:03;-0.82;95.70
69335;SHT31;56477;52.742;15.242;2022-11-20T08:39:29;-0.80;96.08
69335;SHT31;56477;52.742;15.242;2022-11-20T08:41:55;-0.84;95.85
69335;SHT31;56477;52.742;15.242;2022-11-20T08:44:21;-0.83;95.78
69335;SHT31;56477;52.742;15.242;2022-11-20T08:46:47;-0.80;95.39
69335;SHT31;56477;52.742;15.242;2022-11-20T08:49:14;-0.91;95.57
69335;SHT31;56477;52.742;15.242;2022-11-20T08:51:41;-1.01;95.54
69335;SHT31;56477;52.742;15.242;2022-11-20T08:54:07;-0.93;95.63
69335;SHT31;56477;52.742;15.242;2022-11-20T08:56:34;-0.86;95.69
69335;SHT31;56477;52.742;15.242;2022-11-20T08:59:00;-0.79;95.55
69335;SHT31;56477;52.742;15.242;2022-11-20T09:01:27;-0.76;95.54
69335;SHT31;56477;52.742;15.242;2022-11-20T09:03:55;-0.66;95.37
69335;SHT31;56477;52.742;15.242;2022-11-20T09:06:22;-0.72;94.72
69335;SHT31;56477;52.742;15.242;2022-11-20T09:08:52;-0.58;94.46
69335;SHT31;56477;52.742;15.242;2022-11-20T09:11:19;-0.61;94.51
69335;SHT31;56477;52.742;15.242;2022-11-20T09:13:45;-0.59;94.09
69335;SHT31;56477;52.742;15.242;2022-11-20T09:16:11;-0.65;94.25
69335;SHT31;56477;52.742;15.242;2022-11-20T09:18:37;-0.55;93.94
69335;SHT31;56477;52.742;15.242;2022-11-20T09:21:06;-0.26;93.74
69335;SHT31;56477;52.742;15.242;2022-11-20T09:23:34;-0.07;93.30
69335;SHT31;56477;52.742;15.242;2022-11-20T09:26:12;-0.35;92.76
69335;SHT31;56477;52.742;15.242;2022-11-20T09:28:38;-0.31;92.88
69335;SHT31;56477;52.742;15.242;2022-11-20T09:31:09;0.16;92.52
69335;SHT31;56477;52.742;15.242;2022-11-20T09:33:35;0.68;90.98
69335;SHT31;56477;52.742;15.242;2022-11-20T09:36:02;0.58;89.77
69335;SHT31;56477;52.742;15.242;2022-11-20T09:38:28;1.00;88.62
69335;SHT31;56477;52.742;15.242;2022-11-20T09:41:05;0.84;88.76
69335;SHT31;56477;52.742;15.242;2022-11-20T09:43:58;1.47;87.14
69335;SHT31;56477;52.742;15.242;2022-11-20T09:49:53;2.05;85.18
69335;SHT31;56477;52.742;15.242;2022-11-20T09:54:58;1.53;86.15
69335;SHT31;56477;52.742;15.242;2022-11-20T09:57:35;1.26;86.30
69335;SHT31;56477;52.742;15.242;2022-11-20T10:00:05;2.11;84.60
69335;SHT31;56477;52.742;15.242;2022-11-20T10:03:06;1.43;85.11
69335;SHT31;56477;52.742;15.242;2022-11-20T10:05:42;1.55;84.66
69335;SHT31;56477;52.742;15.242;2022-11-20T10:08:21;2.18;84.02
69335;SHT31;56477;52.742;15.242;2022-11-20T10:10:58;1.79;84.77
69335;SHT31;56477;52.742;15.242;2022-11-20T10:16:41;1.64;85.28
69335;SHT31;56477;52.742;15.242;2022-11-20T10:24:52;0.24;89.34
69335;SHT31;56477;52.742;15.242;2022-11-20T10:30:08;-0.04;89.64
69335;SHT31;56477;52.742;15.242;2022-11-20T10:32:38;0.20;89.63
69335;SHT31;56477;52.742;15.242;2022-11-20T10:37:44;0.78;88.13
69335;SHT31;56477;52.742;15.242;2022-11-20T10:40:31;0.65;86.56
69335;SHT31;56477;52.742;15.242;2022-11-20T10:43:04;0.84;86.66
69335;SHT31;56477;52.742;15.242;2022-11-20T10:45:43;0.58;86.80
69335;SHT31;56477;52.742;15.242;2022-11-20T10:48:15;0.99;86.50
69335;SHT31;56477;52.742;15.242;2022-11-20T10:51:01;1.79;85.28
69335;SHT31;56477;52.742;15.242;2022-11-20T10:56:30;1.26;85.39
69335;SHT31;56477;52.742;15.242;2022-11-20T10:59:18;2.26;84.00
69335;SHT31;56477;52.742;15.242;2022-11-20T11:01:50;2.58;80.79
69335;SHT31;56477;52.742;15.242;2022-11-20T11:04:45;1.58;82.33
69335;SHT31;56477;52.742;15.242;2022-11-20T11:07:17;1.78;82.75
69335;SHT31;56477;52.742;15.242;2022-11-20T11:09:54;1.73;83.40
69335;SHT31;56477;52.742;15.242;2022-11-20T11:12:22;2.09;84.07
69335;SHT31;56477;52.742;15.242;2022-11-20T11:14:54;2.61;80.63
69335;SHT31;56477;52.742;15.242;2022-11-20T11:17:33;1.89;81.46
69335;SHT31;56477;52.742;15.242;2022-11-20T11:20:23;2.04;81.89
69335;SHT31;56477;52.742;15.242;2022-11-20T11:22:55;1.97;83.08
69335;SHT31;56477;52.742;15.242;2022-11-20T11:25:32;1.39;82.94
69335;SHT31;56477;52.742;15.242;2022-11-20T11:28:04;1.16;84.14
69335;SHT31;56477;52.742;15.242;2022-11-20T11:30:42;1.23;84.15
69335;SHT31;56477;52.742;15.242;2022-11-20T11:33:19;1.05;84.79
69335;SHT31;56477;52.742;15.242;2022-11-20T11:35:52;0.88;85.30
69335;SHT31;56477;52.742;15.242;2022-11-20T11:38:23;0.28;87.69
69335;SHT31;56477;52.742;15.242;2022-11-20T11:40:54;0.05;89.19
69335;SHT31;56477;52.742;15.242;2022-11-20T11:43:28;0.07;89.30
69335;SHT31;56477;52.742;15.242;2022-11-20T11:49:16;-0.11;89.34
69335;SHT31;56477;52.742;15.242;2022-11-20T11:52:24;-0.01;88.92
69335;SHT31;56477;52.742;15.242;2022-11-20T11:54:45;0.00;89.25
69335;SHT31;56477;52.742;15.242;2022-11-20T12:00:06;-0.01;89.23
69335;SHT31;56477;52.742;15.242;2022-11-20T12:07:47;0.11;89.19
69335;SHT31;56477;52.742;15.242;2022-11-20T12:15:47;0.16;89.37
69335;SHT31;56477;52.742;15.242;2022-11-20T12:18:18;0.18;89.00
69335;SHT31;56477;52.742;15.242;2022-11-20T12:23:35;0.16;89.98
69335;SHT31;56477;52.742;15.242;2022-11-20T12:29:23;0.06;89.73
69335;SHT31;56477;52.742;15.242;2022-11-20T12:40:38;0.47;89.80
69335;SHT31;56477;52.742;15.242;2022-11-20T12:43:26;0.71;88.52
69335;SHT31;56477;52.742;15.242;2022-11-20T12:56:56;0.11;90.18
69335;SHT31;56477;52.742;15.242;2022-11-20T12:59:45;0.13;90.49
69335;SHT31;56477;52.742;15.242;2022-11-20T13:05:25;0.00;90.81
69335;SHT31;56477;52.742;15.242;2022-11-20T13:07:53;-0.12;90.82
69335;SHT31;56477;52.742;15.242;2022-11-20T13:16:11;-0.32;91.88
69335;SHT31;56477;52.742;15.242;2022-11-20T13:18:40;-0.39;91.86
69335;SHT31;56477;52.742;15.242;2022-11-20T13:21:20;-0.41;92.41
69335;SHT31;56477;52.742;15.242;2022-11-20T13:23:47;-0.43;92.48
69335;SHT31;56477;52.742;15.242;2022-11-20T13:26:19;-0.41;92.49
69335;SHT31;56477;52.742;15.242;2022-11-20T13:28:48;-0.43;92.59
69335;SHT31;56477;52.742;15.242;2022-11-20T13:31:35;-0.39;91.82
69335;SHT31;56477;52.742;15.242;2022-11-20T13:34:04;-0.38;91.77
69335;SHT31;56477;52.742;15.242;2022-11-20T13:36:31;-0.41;91.62
69335;SHT31;56477;52.742;15.242;2022-11-20T13:38:58;-0.48;91.78
69335;SHT31;56477;52.742;15.242;2022-11-20T13:43:57;-0.48;91.75
69335;SHT31;56477;52.742;15.242;2022-11-20T13:46:52;-0.43;91.40
69335;SHT31;56477;52.742;15.242;2022-11-20T13:49:39;-0.46;91.90
69335;SHT31;56477;52.742;15.242;2022-11-20T13:52:39;-0.41;91.57
69335;SHT31;56477;52.742;15.242;2022-11-20T13:58:11;-0.46;92.21
69335;SHT31;56477;52.742;15.242;2022-11-20T14:01:09;-0.58;92.74
69335;SHT31;56477;52.742;15.242;2022-11-20T14:03:34;-0.61;93.21
69335;SHT31;56477;52.742;15.242;2022-11-20T14:06:05;-0.65;93.46
69335;SHT31;56477;52.742;15.242;2022-11-20T14:08:57;-0.73;93.71
69335;SHT31;56477;52.742;15.242;2022-11-20T14:11:28;-0.80;94.47
69335;SHT31;56477;52.742;15.242;2022-11-20T14:14:16;-0.87;94.90
69335;SHT31;56477;52.742;15.242;2022-11-20T14:16:43;-0.99;95.50
69335;SHT31;56477;52.742;15.242;2022-11-20T14:21:46;-1.05;96.18
69335;SHT31;56477;52.742;15.242;2022-11-20T14:24:13;-1.04;96.24
69335;SHT31;56477;52.742;15.242;2022-11-20T14:26:43;-1.08;96.32
69335;SHT31;56477;52.742;15.242;2022-11-20T14:29:25;-1.07;96.36
69335;SHT31;56477;52.742;15.242;2022-11-20T14:31:53;-1.10;96.38
69335;SHT31;56477;52.742;15.242;2022-11-20T14:34:29;-1.12;96.57
69335;SHT31;56477;52.742;15.242;2022-11-20T14:37:00;-1.05;96.33
69335;SHT31;56477;52.742;15.242;2022-11-20T14:39:33;-1.10;96.43
69335;SHT31;56477;52.742;15.242;2022-11-20T14:42:00;-1.10;96.61
69335;SHT31;56477;52.742;15.242;2022-11-20T14:44:30;-1.10;96.52
69335;SHT31;56477;52.742;15.242;2022-11-20T14:46:58;-1.11;96.53
69335;SHT31;56477;52.742;15.242;2022-11-20T14:49:26;-1.10;96.29
69335;SHT31;56477;52.742;15.242;2022-11-20T14:52:12;-1.10;96.15
69335;SHT31;56477;52.742;15.242;2022-11-20T14:54:53;-1.10;96.07
69335;SHT31;56477;52.742;15.242;2022-11-20T14:57:23;-1.11;96.11
69335;SHT31;56477;52.742;15.242;2022-11-20T14:59:50;-1.12;96.10
69335;SHT31;56477;52.742;15.242;2022-11-20T15:02:16;-1.14;95.91
69335;SHT31;56477;52.742;15.242;2022-11-20T15:04:50;-1.15;95.64
69335;SHT31;56477;52.742;15.242;2022-11-20T15:07:28;-1.11;95.76
69335;SHT31;56477;52.742;15.242;2022-11-20T15:12:34;-1.10;95.43
69335;SHT31;56477;52.742;15.242;2022-11-20T15:15:02;-1.10;95.28
69335;SHT31;56477;52.742;15.242;2022-11-20T15:17:30;-1.10;95.11
69335;SHT31;56477;52.742;15.242;2022-11-20T15:19:59;-1.14;95.26
69335;SHT31;56477;52.742;15.242;2022-11-20T15:22:25;-1.17;95.37
69335;SHT31;56477;52.742;15.242;2022-11-20T15:24:51;-1.17;95.33
69335;SHT31;56477;52.742;15.242;2022-11-20T15:27:17;-1.17;95.46
69335;SHT31;56477;52.742;15.242;2022-11-20T15:29:43;-1.15;95.41
69335;SHT31;56477;52.742;15.242;2022-11-20T15:32:09;-1.14;95.36
69335;SHT31;56477;52.742;15.242;2022-11-20T15:34:36;-1.15;95.37
69335;SHT31;56477;52.742;15.242;2022-11-20T15:37:02;-1.14;95.45
69335;SHT31;56477;52.742;15.242;2022-11-20T15:39:28;-1.15;95.42
69335;SHT31;56477;52.742;15.242;2022-11-20T15:41:54;-1.17;95.32
69335;SHT31;56477;52.742;15.242;2022-11-20T15:44:20;-1.17;95.36
69335;SHT31;56477;52.742;15.242;2022-11-20T15:46:46;-1.15;95.46
69335;SHT31;56477;52.742;15.242;2022-11-20T15:49:15;-1.14;95.29
69335;SHT31;56477;52.742;15.242;2022-11-20T15:51:44;-1.14;95.39
69335;SHT31;56477;52.742;15.242;2022-11-20T15:54:14;-1.12;95.33
69335;SHT31;56477;52.742;15.242;2022-11-20T15:56:43;-1.11;95.67
69335;SHT31;56477;52.742;15.242;2022-11-20T15:59:09;-1.15;95.93
69335;SHT31;56477;52.742;15.242;2022-11-20T16:01:35;-1.20;96.06
69335;SHT31;56477;52.742;15.242;2022-11-20T16:04:02;-1.18;96.03
69335;SHT31;56477;52.742;15.242;2022-11-20T16:06:28;-1.18;96.08
69335;SHT31;56477;52.742;15.242;2022-11-20T16:08:54;-1.12;96.04
69335;SHT31;56477;52.742;15.242;2022-11-20T16:11:22;-1.14;95.55
69335;SHT31;56477;52.742;15.242;2022-11-20T16:13:49;-1.11;95.54
69335;SHT31;56477;52.742;15.242;2022-11-20T16:16:36;-1.11;95.41
69335;SHT31;56477;52.742;15.242;2022-11-20T16:19:03;-1.08;95.46
69335;SHT31;56477;52.742;15.242;2022-11-20T16:21:29;-1.08;95.45
69335;SHT31;56477;52.742;15.242;2022-11-20T16:26:25;-1.05;95.19
69335;SHT31;56477;52.742;15.242;2022-11-20T16:28:52;-1.05;94.77
69335;SHT31;56477;52.742;15.242;2022-11-20T16:31:19;-1.04;94.78
69335;SHT31;56477;52.742;15.242;2022-11-20T16:33:53;-1.04;94.40
69335;SHT31;56477;52.742;15.242;2022-11-20T16:36:20;-1.04;94.54
69335;SHT31;56477;52.742;15.242;2022-11-20T16:38:52;-1.07;94.45
69335;SHT31;56477;52.742;15.242;2022-11-20T16:41:18;-1.00;94.21
69335;SHT31;56477;52.742;15.242;2022-11-20T16:43:46;-1.00;94.00
69335;SHT31;56477;52.742;15.242;2022-11-20T16:46:18;-1.03;94.26
69335;SHT31;56477;52.742;15.242;2022-11-20T16:48:51;-0.99;93.98
69335;SHT31;56477;52.742;15.242;2022-11-20T16:51:17;-0.96;93.91
69335;SHT31;56477;52.742;15.242;2022-11-20T16:53:44;-0.96;93.80
69335;SHT31;56477;52.742;15.242;2022-11-20T16:56:10;-0.96;93.63
69335;SHT31;56477;52.742;15.242;2022-11-20T16:58:38;-0.99;93.73
69335;SHT31;56477;52.742;15.242;2022-11-20T17:01:07;-0.97;93.96
69335;SHT31;56477;52.742;15.242;2022-11-20T17:03:40;-0.94;93.87
69335;SHT31;56477;52.742;15.242;2022-11-20T17:06:20;-1.01;93.57
69335;SHT31;56477;52.742;15.242;2022-11-20T17:08:47;-0.99;93.51